Time;durP1;ratioP1;P1;durP2;ratioP2;P2;SDS_P1;SDS_P2;PMS_P1;PMS_P2;Temp;Humidity;BMP_temperature;BMP_pressure;BME280_temperature;BME280_humidity;BME280_pressure;Samples;Min_cycle;Max_cycle;Signal;HPM_P1;HPM_P2
2023/11/12 00:00:29;;;;;;;10.10;6.70;;;5.80;99.90;;;;;;4982560;28;20034;-79
2023/11/12 00:02:54;;;;;;;7.55;4.95;;;5.80;99.90;;;;;;4980708;28;20053;-79
2023/11/12 00:05:20;;;;;;;8.23;4.60;;;5.80;99.90;;;;;;4982541;28;20034;-79
2023/11/12 00:07:46;;;;;;;10.57;6.85;;;5.90;99.90;;;;;;4965714;28;20475;-79
2023/11/12 00:10:12;;;;;;;12.70;5.85;;;6.00;99.90;;;;;;4983635;28;20037;-79
2023/11/12 00:12:39;;;;;;;5.40;3.85;;;5.90;99.90;;;;;;4966895;28;20037;-79
2023/11/12 00:15:05;;;;;;;5.95;4.32;;;5.90;99.90;;;;;;4981448;28;20231;-79
2023/11/12 00:17:31;;;;;;;8.68;6.30;;;5.90;99.90;;;;;;4981475;28;20045;-79
2023/11/12 00:19:57;;;;;;;12.65;6.97;;;5.90;99.90;;;;;;4982944;28;20277;-79
2023/11/12 00:22:22;;;;;;;6.63;4.85;;;5.90;99.90;;;;;;4982474;28;20168;-79
2023/11/12 00:24:49;;;;;;;12.95;6.25;;;6.00;99.90;;;;;;4966226;28;20026;-78
2023/11/12 00:27:14;;;;;;;11.07;6.57;;;5.90;99.90;;;;;;4981592;28;20394;-79
2023/11/12 00:29:40;;;;;;;12.57;6.63;;;6.00;99.90;;;;;;4966216;28;20030;-78
2023/11/12 00:32:07;;;;;;;10.80;6.10;;;6.00;99.90;;;;;;4982837;28;20030;-79
2023/11/12 00:34:33;;;;;;;10.77;7.03;;;6.00;99.90;;;;;;4980411;28;20498;-79
2023/11/12 00:36:59;;;;;;;9.35;7.03;;;5.90;99.90;;;;;;4981474;28;20023;-78
2023/11/12 00:39:26;;;;;;;10.23;6.78;;;5.90;99.90;;;;;;4966410;28;20038;-78
2023/11/12 00:41:52;;;;;;;10.05;7.20;;;5.90;99.90;;;;;;4983363;28;20084;-79
2023/11/12 00:44:17;;;;;;;12.32;7.43;;;5.90;99.90;;;;;;4979820;28;20031;-78
2023/11/12 00:46:43;;;;;;;10.68;6.03;;;5.90;99.90;;;;;;4993058;28;20037;-80
2023/11/12 00:49:09;;;;;;;12.07;7.13;;;5.80;99.90;;;;;;4999887;28;20034;-79
2023/11/12 00:51:36;;;;;;;14.65;7.78;;;5.90;99.90;;;;;;4984886;28;20027;-79
2023/11/12 00:54:02;;;;;;;13.75;8.63;;;5.90;99.90;;;;;;5010959;28;20067;-78
2023/11/12 00:56:28;;;;;;;13.93;8.07;;;5.90;99.90;;;;;;5016224;28;20037;-78
2023/11/12 00:58:53;;;;;;;12.68;8.68;;;5.90;99.90;;;;;;4985772;28;20030;-79
2023/11/12 01:01:19;;;;;;;10.40;6.18;;;5.90;99.90;;;;;;5002238;28;20065;-78
2023/11/12 01:03:45;;;;;;;8.02;5.30;;;5.80;99.90;;;;;;4970217;28;20049;-79
2023/11/12 01:06:11;;;;;;;13.73;8.52;;;5.90;99.90;;;;;;5001409;28;20057;-79
2023/11/12 01:08:36;;;;;;;13.80;7.10;;;5.90;99.90;;;;;;4953958;28;20529;-79
2023/11/12 01:11:02;;;;;;;10.10;6.50;;;6.00;99.90;;;;;;4970402;28;20125;-79
2023/11/12 01:13:27;;;;;;;14.18;9.25;;;5.90;99.90;;;;;;4969813;28;20041;-79
2023/11/12 01:15:53;;;;;;;9.93;8.02;;;5.90;99.90;;;;;;4971928;28;20038;-79
2023/11/12 01:18:20;;;;;;;18.15;9.88;;;5.90;99.90;;;;;;5002284;28;20031;-79
2023/11/12 01:20:46;;;;;;;17.25;10.13;;;6.00;99.90;;;;;;4995167;28;20083;-78
2023/11/12 01:23:13;;;;;;;11.95;8.60;;;5.90;99.90;;;;;;4987175;28;20026;-78
2023/11/12 01:25:40;;;;;;;13.55;9.63;;;5.80;99.90;;;;;;4954787;28;20034;-79
2023/11/12 01:28:06;;;;;;;13.68;9.05;;;5.80;99.90;;;;;;4985212;28;20374;-80
2023/11/12 01:30:32;;;;;;;12.88;8.10;;;5.80;99.90;;;;;;4969644;28;20039;-78
2023/11/12 01:32:57;;;;;;;11.25;8.50;;;5.80;99.90;;;;;;4970440;28;20030;-78
2023/11/12 01:35:23;;;;;;;12.77;7.30;;;5.80;99.90;;;;;;4984832;28;20034;-79
2023/11/12 01:37:48;;;;;;;16.90;10.77;;;5.80;99.90;;;;;;4986177;28;20061;-79
2023/11/12 01:40:16;;;;;;;15.50;9.88;;;5.80;99.90;;;;;;4985650;28;20043;-79
2023/11/12 01:42:42;;;;;;;13.00;8.00;;;5.80;99.90;;;;;;4988899;28;20517;-78
2023/11/12 01:45:09;;;;;;;16.58;8.65;;;5.80;99.90;;;;;;4952867;28;20403;-79
2023/11/12 01:47:38;;;;;;;13.45;7.43;;;5.80;99.90;;;;;;4970290;28;20037;-78
2023/11/12 01:50:05;;;;;;;13.13;10.48;;;5.80;99.90;;;;;;4970961;28;20030;-78
2023/11/12 01:52:32;;;;;;;14.45;7.80;;;5.90;99.90;;;;;;4987558;28;20061;-78
2023/11/12 01:54:58;;;;;;;10.70;7.45;;;5.80;99.90;;;;;;4984636;28;20396;-80
2023/11/12 01:57:25;;;;;;;12.93;7.97;;;5.90;99.90;;;;;;4983083;28;20049;-78
2023/11/12 01:59:50;;;;;;;14.07;8.18;;;5.90;99.90;;;;;;4986156;28;20054;-78
2023/11/12 02:02:16;;;;;;;10.98;8.40;;;5.90;99.90;;;;;;4981076;28;20085;-79
2023/11/12 02:04:42;;;;;;;9.68;6.43;;;5.80;99.90;;;;;;4997557;28;20561;-78
2023/11/12 02:07:08;;;;;;;11.43;7.15;;;5.90;99.90;;;;;;4969475;28;20129;-79
2023/11/12 02:09:34;;;;;;;11.90;8.43;;;5.90;99.90;;;;;;4969216;28;20113;-78
2023/11/12 02:11:59;;;;;;;16.33;9.45;;;5.90;99.90;;;;;;4969845;28;20030;-79
2023/11/12 02:14:25;;;;;;;13.05;8.48;;;5.90;99.90;;;;;;4986819;28;20085;-78
2023/11/12 02:16:51;;;;;;;13.77;8.38;;;5.90;99.90;;;;;;5000125;28;20045;-78
2023/11/12 02:19:24;;;;;;;16.50;8.50;;;5.90;99.90;;;;;;4988359;28;20030;-79
2023/11/12 02:21:50;;;;;;;13.77;8.88;;;5.90;99.90;;;;;;4986155;28;20037;-79
2023/11/12 02:24:17;;;;;;;14.43;8.68;;;5.90;99.90;;;;;;4983695;28;20049;-80
2023/11/12 02:26:43;;;;;;;12.18;8.40;;;6.00;99.90;;;;;;4971111;28;20034;-79
2023/11/12 02:29:09;;;;;;;12.05;8.02;;;6.00;99.90;;;;;;4970790;28;20045;-80
2023/11/12 02:31:34;;;;;;;12.63;7.53;;;6.00;99.90;;;;;;4986754;28;20425;-79
2023/11/12 02:34:00;;;;;;;17.52;8.35;;;6.00;99.90;;;;;;4970430;28;20040;-80
2023/11/12 02:36:26;;;;;;;13.77;7.32;;;6.00;99.90;;;;;;5001017;28;20129;-78
2023/11/12 02:38:51;;;;;;;15.57;8.57;;;6.00;99.90;;;;;;4986617;28;20030;-78
2023/11/12 02:41:18;;;;;;;15.07;8.00;;;6.00;99.90;;;;;;4972010;28;20104;-78
2023/11/12 02:43:44;;;;;;;11.70;7.57;;;6.00;99.90;;;;;;4969883;28;20030;-79
2023/11/12 02:46:09;;;;;;;13.20;7.57;;;6.00;99.90;;;;;;5003214;28;20038;-79
2023/11/12 02:49:02;;;;;;;15.23;9.82;;;6.00;99.90;;;;;;4969834;28;20030;-78
2023/11/12 02:51:28;;;;;;;13.38;7.82;;;5.90;99.90;;;;;;4988217;28;20042;-79
2023/11/12 02:53:54;;;;;;;15.07;10.40;;;5.90;99.90;;;;;;4970758;28;20022;-79
2023/11/12 02:56:21;;;;;;;10.50;6.93;;;6.00;99.90;;;;;;4985853;28;20517;-79
2023/11/12 02:58:48;;;;;;;11.45;7.75;;;5.90;99.90;;;;;;4970398;28;20056;-78
2023/11/12 03:01:14;;;;;;;13.13;7.88;;;5.90;99.90;;;;;;4987179;28;20136;-79
2023/11/12 03:03:40;;;;;;;12.32;9.32;;;5.90;99.90;;;;;;4986312;28;20113;-79
2023/11/12 03:06:05;;;;;;;14.55;8.35;;;5.80;99.90;;;;;;4970201;28;20513;-78
2023/11/12 03:08:31;;;;;;;13.20;7.20;;;5.80;99.90;;;;;;4986263;28;20042;-79
2023/11/12 03:10:57;;;;;;;12.98;8.15;;;5.80;99.90;;;;;;4970738;28;20486;-80
2023/11/12 03:13:22;;;;;;;11.23;8.05;;;5.80;99.90;;;;;;4986767;28;20045;-79
2023/11/12 03:15:48;;;;;;;11.57;6.60;;;5.80;99.90;;;;;;5002250;28;20446;-78
2023/11/12 03:18:13;;;;;;;12.55;6.82;;;5.80;99.90;;;;;;4970141;28;20042;-79
2023/11/12 03:20:39;;;;;;;13.65;7.75;;;5.90;99.90;;;;;;4971901;28;20048;-78
2023/11/12 03:23:07;;;;;;;14.00;9.13;;;5.90;99.90;;;;;;5001935;28;20093;-79
2023/11/12 03:25:32;;;;;;;9.30;6.72;;;5.90;99.90;;;;;;4985583;28;20038;-79
2023/11/12 03:27:59;;;;;;;16.10;7.47;;;5.80;99.90;;;;;;4970377;28;20041;-78
2023/11/12 03:30:24;;;;;;;13.93;8.57;;;5.80;99.90;;;;;;4968413;28;20122;-78
2023/11/12 03:32:50;;;;;;;13.43;8.55;;;5.70;99.90;;;;;;4970088;28;20101;-79
2023/11/12 03:35:16;;;;;;;10.57;7.45;;;5.70;99.90;;;;;;4986994;28;20042;-79
2023/11/12 03:37:41;;;;;;;11.10;7.03;;;5.70;99.90;;;;;;4970170;28;20031;-78
2023/11/12 03:40:08;;;;;;;11.02;8.00;;;5.60;99.90;;;;;;4984301;28;20418;-79
2023/11/12 03:42:34;;;;;;;10.77;6.97;;;5.70;99.90;;;;;;5000246;28;20034;-79
2023/11/12 03:45:01;;;;;;;10.77;6.40;;;5.60;99.90;;;;;;4970084;28;20390;-79
2023/11/12 03:47:27;;;;;;;15.65;7.40;;;5.60;99.90;;;;;;4954320;28;20029;-78
2023/11/12 03:49:52;;;;;;;12.07;6.25;;;5.60;99.90;;;;;;4984267;28;20034;-79
2023/11/12 03:52:18;;;;;;;15.07;7.55;;;5.60;99.90;;;;;;4984592;28;20034;-79
2023/11/12 03:54:44;;;;;;;11.85;6.97;;;5.60;99.90;;;;;;4969650;28;20106;-79
2023/11/12 03:57:09;;;;;;;10.75;7.80;;;5.60;99.90;;;;;;4967634;28;20038;-78
2023/11/12 03:59:36;;;;;;;9.38;6.63;;;5.80;99.90;;;;;;4999507;28;20034;-80
2023/11/12 04:02:02;;;;;;;12.50;6.85;;;5.70;99.90;;;;;;4984364;28;20031;-79
2023/11/12 04:04:28;;;;;;;19.77;8.82;;;5.70;99.90;;;;;;4984829;28;20065;-79
2023/11/12 04:06:54;;;;;;;10.00;5.78;;;5.70;99.90;;;;;;5002432;28;20066;-80
2023/11/12 04:09:19;;;;;;;14.32;7.93;;;5.60;99.90;;;;;;4965469;28;20038;-79
2023/11/12 04:11:45;;;;;;;16.33;8.98;;;5.60;99.90;;;;;;4967523;28;20089;-79
2023/11/12 04:14:10;;;;;;;14.25;8.13;;;5.60;99.90;;;;;;4982939;28;20068;-79
2023/11/12 04:16:36;;;;;;;18.17;8.27;;;5.60;99.90;;;;;;4997415;28;20074;-78
2023/11/12 04:19:04;;;;;;;11.02;7.82;;;5.60;99.90;;;;;;4984067;28;20061;-79
2023/11/12 04:21:31;;;;;;;14.32;7.88;;;5.50;99.90;;;;;;4997440;28;20030;-79
2023/11/12 04:23:58;;;;;;;12.60;7.95;;;5.60;99.90;;;;;;4983793;28;20761;-79
2023/11/12 04:26:24;;;;;;;11.40;7.20;;;5.60;99.90;;;;;;4996396;28;20038;-79
2023/11/12 04:28:50;;;;;;;15.63;8.23;;;5.60;99.90;;;;;;4982123;28;20027;-78
2023/11/12 04:31:15;;;;;;;12.60;7.38;;;5.60;99.90;;;;;;4967265;28;20037;-79
2023/11/12 04:33:41;;;;;;;10.23;6.88;;;5.60;99.90;;;;;;4968482;28;20041;-79
2023/11/12 04:36:07;;;;;;;16.77;8.70;;;5.70;99.90;;;;;;4982134;28;20038;-79
2023/11/12 04:38:33;;;;;;;12.30;7.10;;;5.70;99.90;;;;;;4983689;28;20490;-79
2023/11/12 04:40:59;;;;;;;15.13;8.00;;;5.60;99.90;;;;;;4967075;28;20034;-79
2023/11/12 04:43:24;;;;;;;11.32;5.72;;;5.60;99.90;;;;;;4999622;28;20034;-79
2023/11/12 04:45:50;;;;;;;11.70;6.50;;;5.60;99.90;;;;;;4983621;28;20034;-79
2023/11/12 04:48:15;;;;;;;13.35;7.40;;;5.70;99.90;;;;;;4967388;28;20034;-80
2023/11/12 04:50:41;;;;;;;10.82;7.60;;;5.70;99.90;;;;;;4998035;28;20100;-79
2023/11/12 04:53:07;;;;;;;15.35;7.05;;;5.70;99.90;;;;;;4982277;28;20040;-80
2023/11/12 04:55:33;;;;;;;14.45;7.20;;;5.70;99.90;;;;;;5014872;28;20062;-79
2023/11/12 04:57:58;;;;;;;11.02;7.10;;;5.70;99.90;;;;;;4981315;28;20089;-79
2023/11/12 05:00:24;;;;;;;13.15;7.43;;;5.70;99.90;;;;;;4970772;28;20022;-79
2023/11/12 05:02:51;;;;;;;12.82;6.72;;;5.70;99.90;;;;;;4967323;28;20049;-78
2023/11/12 05:05:16;;;;;;;14.18;6.45;;;5.80;99.90;;;;;;4985430;28;20034;-78
2023/11/12 05:07:43;;;;;;;10.77;7.45;;;5.70;99.90;;;;;;5002854;28;20029;-80
2023/11/12 05:10:10;;;;;;;11.57;7.40;;;5.70;99.90;;;;;;4981610;28;20081;-79
2023/11/12 05:12:37;;;;;;;9.32;6.80;;;5.60;99.90;;;;;;4966382;28;20088;-79
2023/11/12 05:15:05;;;;;;;14.82;6.97;;;5.70;99.90;;;;;;4967397;28;20042;-79
2023/11/12 05:17:30;;;;;;;12.57;7.43;;;5.70;99.90;;;;;;4966573;28;20031;-79
2023/11/12 05:19:56;;;;;;;15.25;8.00;;;5.70;99.90;;;;;;5002334;28;20073;-79
2023/11/12 05:22:21;;;;;;;15.55;8.52;;;5.70;99.90;;;;;;4981529;28;20034;-79
2023/11/12 05:24:51;;;;;;;11.82;7.82;;;5.70;99.90;;;;;;4978849;28;20037;-78
2023/11/12 05:27:17;;;;;;;9.98;6.93;;;5.70;99.90;;;;;;4978727;28;20046;-79
2023/11/12 05:29:43;;;;;;;11.70;6.47;;;5.70;99.90;;;;;;4983211;28;20089;-78
2023/11/12 05:32:08;;;;;;;9.23;5.28;;;5.80;99.90;;;;;;4980618;28;20038;-80
2023/11/12 05:34:34;;;;;;;11.30;6.65;;;5.70;99.90;;;;;;4980202;28;20030;-80
2023/11/12 05:36:59;;;;;;;12.52;6.72;;;5.70;99.90;;;;;;4964863;28;20049;-79
2023/11/12 05:39:25;;;;;;;8.40;5.85;;;5.70;99.90;;;;;;4965395;28;20045;-78
2023/11/12 05:41:51;;;;;;;8.70;6.28;;;5.80;99.90;;;;;;4988981;28;20037;-79
2023/11/12 05:44:17;;;;;;;10.13;6.18;;;5.70;99.90;;;;;;4969129;28;20038;-79
2023/11/12 05:46:42;;;;;;;8.13;5.97;;;5.70;99.90;;;;;;4985771;28;20042;-79
2023/11/12 05:49:08;;;;;;;9.05;6.10;;;5.70;99.90;;;;;;4969037;28;20038;-80
2023/11/12 05:51:33;;;;;;;8.30;6.85;;;5.70;99.90;;;;;;4983272;28;20557;-79
2023/11/12 05:53:59;;;;;;;11.15;6.32;;;5.80;99.90;;;;;;4968489;28;20113;-80
2023/11/12 05:56:24;;;;;;;11.63;6.57;;;5.70;99.90;;;;;;4983366;28;20133;-79
2023/11/12 05:58:50;;;;;;;10.32;6.57;;;5.60;99.90;;;;;;4967906;28;20137;-79
2023/11/12 06:01:17;;;;;;;9.82;5.32;;;5.50;99.90;;;;;;4967903;28;20116;-78
2023/11/12 06:03:43;;;;;;;12.48;7.50;;;5.50;99.90;;;;;;4969385;28;20038;-79
2023/11/12 06:06:08;;;;;;;11.23;7.00;;;5.50;99.90;;;;;;4983488;28;20034;-78
2023/11/12 06:08:38;;;;;;;11.93;6.65;;;5.60;99.90;;;;;;4980075;28;20045;-79
2023/11/12 06:11:05;;;;;;;12.48;6.97;;;5.50;99.90;;;;;;4968193;28;20088;-79
2023/11/12 06:13:31;;;;;;;9.57;6.32;;;5.40;99.90;;;;;;4986551;28;20038;-78
2023/11/12 06:15:57;;;;;;;11.65;7.03;;;5.40;99.90;;;;;;4983000;28;20513;-80
2023/11/12 06:18:22;;;;;;;13.23;6.80;;;5.40;99.90;;;;;;4981726;28;20088;-78
2023/11/12 06:20:48;;;;;;;12.40;6.30;;;5.20;99.90;;;;;;4984789;28;20065;-79
2023/11/12 06:23:14;;;;;;;10.40;7.18;;;5.20;99.90;;;;;;4984202;28;20038;-79
2023/11/12 06:25:40;;;;;;;12.35;6.80;;;5.20;99.90;;;;;;4983302;28;20399;-79
2023/11/12 06:28:06;;;;;;;12.60;6.65;;;5.10;99.90;;;;;;4966456;28;20033;-80
2023/11/12 06:30:31;;;;;;;11.98;6.85;;;5.00;99.90;;;;;;4982533;28;20088;-80
2023/11/12 06:32:58;;;;;;;9.32;6.15;;;5.00;99.90;;;;;;4995952;28;20031;-80
2023/11/12 06:35:24;;;;;;;10.77;7.10;;;4.90;99.90;;;;;;4997863;28;20034;-78
2023/11/12 06:37:50;;;;;;;11.10;6.55;;;4.80;99.90;;;;;;4984960;28;20488;-79
2023/11/12 06:40:16;;;;;;;9.88;7.15;;;4.90;99.90;;;;;;4983879;28;20050;-79
2023/11/12 06:42:42;;;;;;;15.02;8.38;;;5.00;99.90;;;;;;4995852;28;20703;-79
2023/11/12 06:45:08;;;;;;;10.45;7.22;;;5.00;99.90;;;;;;5001095;28;20479;-79
2023/11/12 06:47:35;;;;;;;12.10;7.30;;;5.00;99.90;;;;;;4984460;28;20601;-80
2023/11/12 06:50:01;;;;;;;11.95;7.13;;;4.90;99.90;;;;;;4968588;28;20038;-78
2023/11/12 06:52:27;;;;;;;13.57;7.28;;;4.90;99.90;;;;;;4954053;28;20114;-79
2023/11/12 06:54:52;;;;;;;11.60;6.93;;;4.90;99.90;;;;;;4979038;28;20035;-79
2023/11/12 06:57:18;;;;;;;15.73;8.38;;;4.80;99.90;;;;;;4968307;28;20435;-80
2023/11/12 06:59:43;;;;;;;13.02;7.45;;;4.90;99.90;;;;;;4968697;28;20948;-79
2023/11/12 07:02:11;;;;;;;16.08;8.40;;;4.80;99.90;;;;;;4985268;28;20041;-79
2023/11/12 07:04:37;;;;;;;8.73;7.20;;;4.80;99.90;;;;;;5001299;28;20062;-79
2023/11/12 07:07:05;;;;;;;15.18;8.20;;;4.90;99.90;;;;;;4951118;28;20577;-79
2023/11/12 07:09:31;;;;;;;17.27;8.60;;;5.00;99.90;;;;;;5001407;28;20026;-80
2023/11/12 07:11:56;;;;;;;11.45;8.05;;;5.00;99.90;;;;;;4985570;28;20034;-80
2023/11/12 07:14:24;;;;;;;14.85;8.35;;;5.00;99.90;;;;;;4982444;28;20527;-79
2023/11/12 07:16:49;;;;;;;14.52;8.27;;;5.00;99.90;;;;;;4985270;28;20042;-80
2023/11/12 07:19:15;;;;;;;11.25;7.68;;;5.00;99.90;;;;;;4968304;28;20038;-79
2023/11/12 07:21:40;;;;;;;15.32;8.75;;;5.00;99.90;;;;;;4980866;28;20556;-80
2023/11/12 07:24:06;;;;;;;13.70;8.55;;;5.00;99.90;;;;;;4967507;28;20049;-80
2023/11/12 07:26:33;;;;;;;10.65;6.60;;;5.00;99.90;;;;;;4968070;28;20061;-79
2023/11/12 07:28:59;;;;;;;11.82;7.50;;;5.00;99.90;;;;;;4982416;28;20065;-78
2023/11/12 07:31:25;;;;;;;10.63;6.65;;;5.00;99.90;;;;;;4984734;28;20149;-78
2023/11/12 07:33:50;;;;;;;10.07;7.22;;;5.20;99.90;;;;;;4985025;28;20045;-78
2023/11/12 07:36:16;;;;;;;9.48;5.40;;;5.10;99.90;;;;;;4984914;28;20043;-81
2023/11/12 07:38:42;;;;;;;6.97;5.20;;;5.20;99.90;;;;;;4984391;28;20097;-80
2023/11/12 07:41:08;;;;;;;8.98;6.22;;;5.10;99.90;;;;;;4985058;28;20034;-79
2023/11/12 07:43:35;;;;;;;8.30;5.35;;;5.20;99.90;;;;;;4968788;28;20042;-79
2023/11/12 07:46:02;;;;;;;9.02;6.22;;;5.20;99.90;;;;;;4983925;28;20038;-79
2023/11/12 07:48:30;;;;;;;7.45;5.55;;;5.20;99.90;;;;;;4982594;28;20647;-79
2023/11/12 07:50:59;;;;;;;15.70;6.28;;;5.10;99.90;;;;;;4983801;28;20030;-79
2023/11/12 07:53:25;;;;;;;7.32;5.60;;;5.10;99.90;;;;;;4967429;28;20589;-80
2023/11/12 07:55:51;;;;;;;18.30;6.70;;;5.10;99.90;;;;;;4980985;28;20073;-80
2023/11/12 07:58:18;;;;;;;7.50;5.60;;;5.20;99.90;;;;;;4986722;28;20491;-81
2023/11/12 08:00:44;;;;;;;12.38;6.45;;;5.30;99.90;;;;;;4983618;28;20041;-79
2023/11/12 08:03:10;;;;;;;9.75;5.03;;;5.20;99.90;;;;;;4968017;28;20562;-79
2023/11/12 08:05:35;;;;;;;8.45;6.40;;;5.20;99.90;;;;;;4983107;28;20035;-80
2023/11/12 08:08:01;;;;;;;7.80;5.45;;;5.30;99.90;;;;;;4983627;28;20584;-80
2023/11/12 08:10:26;;;;;;;7.05;4.20;;;5.40;99.90;;;;;;4966782;28;20483;-79
2023/11/12 08:12:52;;;;;;;8.75;5.63;;;5.50;99.90;;;;;;4967179;28;20104;-77
2023/11/12 08:15:18;;;;;;;8.88;5.20;;;5.60;99.90;;;;;;4995106;28;20039;-77
2023/11/12 08:17:45;;;;;;;11.50;6.10;;;5.70;99.90;;;;;;4983810;28;20034;-77
2023/11/12 08:20:11;;;;;;;7.28;5.25;;;5.80;99.90;;;;;;5000921;28;20525;-78
2023/11/12 08:22:37;;;;;;;6.80;4.45;;;5.80;99.90;;;;;;4983115;28;20031;-78
2023/11/12 08:25:03;;;;;;;6.68;4.95;;;5.90;99.90;;;;;;4983356;28;20703;-77
2023/11/12 08:27:30;;;;;;;6.18;4.45;;;6.00;99.90;;;;;;5013362;28;20041;-77
2023/11/12 08:29:56;;;;;;;6.00;4.00;;;6.00;99.90;;;;;;4983630;28;20026;-78
2023/11/12 08:32:21;;;;;;;9.55;4.18;;;6.10;99.90;;;;;;4967535;28;20062;-78
2023/11/12 08:34:47;;;;;;;8.18;4.65;;;6.10;99.90;;;;;;4984724;28;20106;-77
2023/11/12 08:37:13;;;;;;;8.57;4.78;;;6.20;99.90;;;;;;4983225;28;20084;-76
2023/11/12 08:39:39;;;;;;;10.63;4.45;;;6.20;99.90;;;;;;4983125;28;20030;-76
2023/11/12 08:42:05;;;;;;;8.43;3.83;;;6.40;99.90;;;;;;4981761;28;20062;-77
2023/11/12 08:44:30;;;;;;;5.20;3.72;;;6.50;99.90;;;;;;4993999;28;20165;-76
2023/11/12 08:46:56;;;;;;;6.57;3.90;;;6.60;99.90;;;;;;4964282;28;20459;-77
2023/11/12 08:49:21;;;;;;;6.05;4.38;;;6.70;99.90;;;;;;4980158;28;20118;-76
2023/11/12 08:51:47;;;;;;;7.15;4.20;;;6.70;99.90;;;;;;4998398;28;20038;-77
2023/11/12 08:54:13;;;;;;;4.68;2.67;;;6.80;99.90;;;;;;4966729;28;20122;-77
2023/11/12 08:56:38;;;;;;;10.27;3.22;;;7.00;99.90;;;;;;4981881;28;20142;-78
2023/11/12 08:59:04;;;;;;;6.20;3.47;;;7.20;99.90;;;;;;4981753;28;20474;-78
2023/11/12 09:01:36;;;;;;;7.97;2.72;;;7.50;99.90;;;;;;4998655;28;20033;-77
2023/11/12 09:04:02;;;;;;;4.47;3.30;;;7.50;99.90;;;;;;4998384;28;20073;-77
2023/11/12 09:06:28;;;;;;;3.53;2.90;;;7.60;99.90;;;;;;4966714;28;20034;-77
2023/11/12 09:08:55;;;;;;;6.75;2.97;;;7.80;99.90;;;;;;4982909;28;20257;-77
2023/11/12 09:11:21;;;;;;;6.32;3.42;;;7.90;99.90;;;;;;4968375;28;20038;-77
2023/11/12 09:13:47;;;;;;;4.90;2.65;;;8.00;99.90;;;;;;4952153;28;20038;-76
2023/11/12 09:16:13;;;;;;;6.43;2.97;;;8.10;99.90;;;;;;4997047;28;20526;-77
2023/11/12 09:18:39;;;;;;;6.93;3.33;;;8.10;99.90;;;;;;4970151;28;20548;-77
2023/11/12 09:21:04;;;;;;;4.57;2.88;;;8.30;99.90;;;;;;5000597;28;20034;-78
2023/11/12 09:23:30;;;;;;;5.28;2.88;;;8.30;99.90;;;;;;4987786;28;20081;-77
2023/11/12 09:25:55;;;;;;;8.20;3.40;;;8.40;99.90;;;;;;4986941;28;20030;-77
2023/11/12 09:28:21;;;;;;;4.90;2.63;;;8.20;99.90;;;;;;4970369;28;20030;-78
2023/11/12 09:30:48;;;;;;;4.03;2.60;;;8.40;99.90;;;;;;4970862;28;20062;-77
2023/11/12 09:33:14;;;;;;;5.13;3.00;;;8.60;99.90;;;;;;4998800;28;20451;-78
2023/11/12 09:35:39;;;;;;;4.50;2.53;;;8.70;99.90;;;;;;4997077;28;20549;-77
2023/11/12 09:38:05;;;;;;;6.32;2.92;;;9.00;99.90;;;;;;4983917;28;20114;-79
2023/11/12 09:40:31;;;;;;;4.78;2.95;;;9.10;99.90;;;;;;4997770;28;20073;-77
2023/11/12 09:42:57;;;;;;;3.45;2.50;;;9.40;99.90;;;;;;5003271;28;20085;-78
2023/11/12 09:45:23;;;;;;;4.25;2.53;;;9.50;99.90;;;;;;4970215;28;20026;-77
2023/11/12 09:47:54;;;;;;;3.20;2.47;;;9.40;99.90;;;;;;4970717;28;20048;-78
2023/11/12 09:50:20;;;;;;;4.32;2.60;;;9.50;99.90;;;;;;4983164;28;20486;-77
2023/11/12 09:52:46;;;;;;;7.07;3.35;;;9.70;99.90;;;;;;4970199;28;20038;-77
2023/11/12 09:55:12;;;;;;;4.13;2.20;;;9.80;99.90;;;;;;4985471;28;20081;-78
2023/11/12 09:57:37;;;;;;;6.72;2.60;;;10.00;99.90;;;;;;4999842;28;20579;-78
2023/11/12 10:00:06;;;;;;;7.93;3.05;;;9.90;99.90;;;;;;4995325;28;20037;-77
2023/11/12 10:02:32;;;;;;;6.38;2.97;;;10.10;99.90;;;;;;4984470;28;20126;-77
2023/11/12 10:04:58;;;;;;;4.18;2.55;;;10.20;99.90;;;;;;4986448;28;20113;-78
2023/11/12 10:07:25;;;;;;;4.45;2.40;;;10.30;99.90;;;;;;4969384;28;20050;-77
2023/11/12 10:09:50;;;;;;;8.38;3.45;;;10.30;99.90;;;;;;5017040;28;20030;-77
2023/11/12 10:12:16;;;;;;;5.03;2.40;;;10.40;99.90;;;;;;4999082;28;20027;-77
2023/11/12 10:14:42;;;;;;;5.80;2.47;;;10.50;99.90;;;;;;4986615;28;20041;-77
2023/11/12 10:17:10;;;;;;;5.10;2.55;;;10.60;99.90;;;;;;4985530;28;20034;-78
2023/11/12 10:19:37;;;;;;;4.07;2.08;;;11.00;99.90;;;;;;4985225;28;20349;-78
2023/11/12 10:22:03;;;;;;;5.22;2.00;;;11.30;99.90;;;;;;4997046;28;20034;-78
2023/11/12 10:24:29;;;;;;;3.35;1.88;;;11.40;99.90;;;;;;4984979;28;20034;-78
2023/11/12 10:27:02;;;;;;;4.93;2.13;;;11.30;99.90;;;;;;4984274;28;20030;-78
2023/11/12 10:29:28;;;;;;;2.90;2.03;;;11.70;99.90;;;;;;4978605;28;20026;-78
2023/11/12 10:32:02;;;;;;;3.83;2.33;;;11.60;99.90;;;;;;4969555;28;20041;-76
2023/11/12 10:34:31;;;;;;;3.47;1.95;;;11.40;99.90;;;;;;4975004;28;20049;-77
2023/11/12 10:37:07;;;;;;;2.92;2.22;;;11.60;99.90;;;;;;4968747;28;20089;-78
2023/11/12 10:39:43;;;;;;;3.83;2.10;;;11.70;99.90;;;;;;4982619;28;20034;-77
2023/11/12 10:42:23;;;;;;;2.38;2.03;;;11.60;99.90;;;;;;5012702;28;20084;-77
2023/11/12 10:44:49;;;;;;;4.53;1.92;;;11.80;99.90;;;;;;4999015;28;20030;-77
2023/11/12 10:47:16;;;;;;;2.60;1.90;;;11.70;99.90;;;;;;4994328;28;20050;-77
2023/11/12 10:49:42;;;;;;;2.55;1.80;;;11.80;99.90;;;;;;4968349;28;20038;-77
2023/11/12 10:52:08;;;;;;;2.78;1.70;;;12.00;99.90;;;;;;4983122;28;20034;-78
2023/11/12 10:54:34;;;;;;;3.25;1.85;;;11.70;99.90;;;;;;4983462;28;20038;-77
2023/11/12 10:57:00;;;;;;;2.50;1.70;;;11.90;99.90;;;;;;4994222;28;20407;-77
2023/11/12 10:59:25;;;;;;;3.25;1.90;;;11.90;99.90;;;;;;5016777;28;20107;-77
2023/11/12 11:01:51;;;;;;;4.15;1.80;;;12.10;99.90;;;;;;4968574;28;20038;-77
2023/11/12 11:04:16;;;;;;;3.58;1.80;;;12.30;99.90;;;;;;4983661;28;20038;-77
2023/11/12 11:06:42;;;;;;;3.03;1.70;;;12.20;99.90;;;;;;4995225;28;21142;-77
2023/11/12 11:09:10;;;;;;;3.67;2.05;;;12.10;99.90;;;;;;4979680;28;20026;-77
2023/11/12 11:11:36;;;;;;;4.30;1.75;;;12.10;99.90;;;;;;4983617;28;20030;-77
2023/11/12 11:14:23;;;;;;;2.95;1.80;;;12.20;99.90;;;;;;4967682;28;20038;-78
2023/11/12 11:16:50;;;;;;;3.72;1.92;;;12.40;99.90;;;;;;4992782;28;20046;-77
2023/11/12 11:19:17;;;;;;;3.47;1.88;;;12.60;99.90;;;;;;4983885;28;20549;-77
2023/11/12 11:22:15;;;;;;;5.03;1.75;;;12.70;99.90;;;;;;4996398;28;20046;-77
2023/11/12 11:24:45;;;;;;;5.13;1.70;;;12.80;99.90;;;;;;4985366;28;20042;-76
2023/11/12 11:27:10;;;;;;;3.10;1.73;;;12.70;99.90;;;;;;4995284;28;20442;-77
2023/11/12 11:29:36;;;;;;;2.17;1.60;;;12.50;99.90;;;;;;4967475;28;20034;-77
2023/11/12 11:32:07;;;;;;;5.10;2.03;;;12.60;99.90;;;;;;4983648;28;20030;-78
2023/11/12 11:34:41;;;;;;;1.98;1.02;;;13.10;99.90;;;;;;4982829;28;20043;-77
2023/11/12 11:37:07;;;;;;;2.08;1.30;;;12.90;99.90;;;;;;4966936;28;20046;-77
2023/11/12 11:39:33;;;;;;;4.05;1.40;;;12.80;99.90;;;;;;4996815;28;20034;-78
2023/11/12 11:42:02;;;;;;;6.35;1.60;;;13.00;99.90;;;;;;5002283;28;20212;-78
2023/11/12 11:44:44;;;;;;;5.15;2.30;;;13.20;99.90;;;;;;4983497;28;20050;-77
2023/11/12 11:47:10;;;;;;;2.65;1.52;;;13.50;99.90;;;;;;4983029;28;20031;-77
2023/11/12 11:49:36;;;;;;;1.98;1.45;;;13.80;99.90;;;;;;4980766;28;20027;-78
2023/11/12 11:52:01;;;;;;;3.33;1.55;;;13.60;99.90;;;;;;4967167;28;20026;-77
2023/11/12 11:54:28;;;;;;;3.67;1.73;;;13.70;99.90;;;;;;4994927;28;20046;-77
2023/11/12 11:56:56;;;;;;;5.00;1.55;;;13.40;99.90;;;;;;4985266;28;20038;-78
2023/11/12 11:59:22;;;;;;;2.83;1.42;;;13.60;99.90;;;;;;5012577;28;20041;-78
2023/11/12 12:01:48;;;;;;;2.00;1.20;;;14.00;99.90;;;;;;4998823;28;20031;-78
2023/11/12 12:04:14;;;;;;;2.45;1.23;;;14.10;99.90;;;;;;4982386;28;20101;-78
2023/11/12 12:06:43;;;;;;;3.33;1.25;;;14.30;99.90;;;;;;4998051;28;20122;-78
2023/11/12 12:09:13;;;;;;;3.85;1.30;;;14.10;99.90;;;;;;4952172;28;20038;-78
2023/11/12 12:11:39;;;;;;;2.10;1.00;;;13.90;99.90;;;;;;4967116;28;20037;-78
2023/11/12 12:14:05;;;;;;;3.33;1.30;;;13.90;99.90;;;;;;4967327;28;20034;-77
2023/11/12 12:16:33;;;;;;;1.58;1.10;;;13.80;99.90;;;;;;4993673;28;20253;-77
2023/11/12 12:19:02;;;;;;;3.03;0.98;;;14.10;99.90;;;;;;4982486;28;20053;-79
2023/11/12 12:21:28;;;;;;;4.40;1.15;;;14.20;99.90;;;;;;4974877;28;20485;-78
2023/11/12 12:23:54;;;;;;;2.83;1.50;;;14.30;99.90;;;;;;4981151;28;20117;-79
2023/11/12 12:26:24;;;;;;;3.42;1.70;;;13.90;99.90;;;;;;4983729;28;20471;-78
2023/11/12 12:28:51;;;;;;;3.50;1.65;;;13.70;99.90;;;;;;4966288;28;20562;-78
2023/11/12 12:31:17;;;;;;;4.50;1.38;;;14.00;99.90;;;;;;4998607;28;20038;-78
2023/11/12 12:33:59;;;;;;;2.42;1.30;;;14.00;99.90;;;;;;4997392;28;20037;-78
2023/11/12 12:36:25;;;;;;;2.67;1.45;;;14.10;99.90;;;;;;4980090;28;20034;-78
2023/11/12 12:39:00;;;;;;;5.88;1.88;;;14.10;99.90;;;;;;4981836;28;20834;-78
2023/11/12 12:41:27;;;;;;;1.13;0.90;;;14.30;99.90;;;;;;4305537;28;10000109;-78
2023/11/12 12:43:56;;;;;;;2.97;1.60;;;14.30;99.90;;;;;;4950176;28;20035;-79